createdAt,value
2018-11-23T00:00:40.638Z,150.60
2018-11-23T00:03:08.886Z,150.22
2018-11-23T00:05:38.017Z,142.10
2018-11-23T00:08:06.595Z,133.70
2018-11-23T00:10:54.257Z,134.12
2018-11-23T00:13:23.389Z,132.95
2018-11-23T00:15:51.997Z,136.00
2018-11-23T00:18:20.265Z,130.72
2018-11-23T00:20:48.519Z,131.90
2018-11-23T00:23:55.541Z,141.80
2018-11-23T00:26:24.074Z,150.95
2018-11-23T00:28:52.792Z,142.90
2018-11-23T00:31:21.378Z,144.68
2018-11-23T00:33:50.197Z,128.00
2018-11-23T00:36:19.077Z,136.18
2018-11-23T00:38:48.689Z,141.47
2018-11-23T00:41:17.292Z,142.30
2018-11-23T00:43:45.873Z,134.60
2018-11-23T00:46:14.731Z,134.75
2018-11-23T00:48:43.847Z,138.90
2018-11-23T00:51:12.104Z,131.25
2018-11-23T00:53:40.704Z,136.52
2018-11-23T00:56:08.971Z,130.25
2018-11-23T00:58:56.583Z,147.68
2018-11-23T01:01:24.875Z,130.00
2018-11-23T01:03:53.630Z,128.20
2018-11-23T01:06:22.564Z,125.92
2018-11-23T01:08:51.104Z,127.00
2018-11-23T01:11:19.687Z,122.87
2018-11-23T01:13:48.277Z,123.80
2018-11-23T01:16:16.501Z,122.22
2018-11-23T01:18:44.733Z,116.85
2018-11-23T01:21:13.290Z,127.60
2018-11-23T01:23:41.822Z,134.93
2018-11-23T01:26:11.420Z,138.00
2018-11-23T01:28:39.639Z,135.10
2018-11-23T01:31:07.883Z,121.25
2018-11-23T01:33:37.274Z,117.05
2018-11-23T01:36:05.562Z,125.70
2018-11-23T01:38:36.317Z,130.80
2018-11-23T01:41:02.832Z,115.77
2018-11-23T01:43:31.798Z,115.35
2018-11-23T01:46:00.008Z,122.60
2018-11-23T01:48:47.921Z,114.75
2018-11-23T01:51:16.141Z,124.60
2018-11-23T01:53:44.368Z,124.47
2018-11-23T01:56:32.034Z,121.92
2018-11-23T01:59:01.385Z,122.00
2018-11-23T02:01:30.226Z,122.13
2018-11-23T02:03:58.831Z,130.63
2018-11-23T02:06:46.765Z,110.15
2018-11-23T02:09:15.034Z,120.15
2018-11-23T02:11:43.247Z,117.03
2018-11-23T02:14:11.857Z,117.57
2018-11-23T02:16:40.126Z,125.35
2018-11-23T02:19:09.653Z,119.28
2018-11-23T02:21:38.254Z,119.75
2018-11-23T02:24:06.465Z,114.47
2018-11-23T02:26:35.491Z,126.60
2018-11-23T02:29:04.145Z,119.00
2018-11-23T02:31:33.304Z,134.27
2018-11-23T02:34:01.522Z,116.85
2018-11-23T02:36:29.757Z,124.35
2018-11-23T02:38:58.436Z,123.42
2018-11-23T02:41:27.001Z,143.68
2018-11-23T02:43:55.258Z,122.87
2018-11-23T02:46:24.225Z,134.25
2018-11-23T02:48:53.259Z,123.30
2018-11-23T02:51:21.533Z,117.60
2018-11-23T02:53:50.315Z,128.75
2018-11-23T02:56:18.869Z,139.03
2018-11-23T02:59:06.802Z,150.47
2018-11-23T03:01:35.003Z,142.00
2018-11-23T03:04:03.247Z,153.40
2018-11-23T03:06:31.948Z,161.95
2018-11-23T03:09:19.594Z,154.63
2018-11-23T03:11:48.486Z,167.07
2018-11-23T03:14:17.040Z,153.02
2018-11-23T03:16:45.591Z,144.10
2018-11-23T03:19:13.817Z,141.37
2018-11-23T03:21:42.788Z,142.93
2018-11-23T03:24:11.256Z,127.20
2018-11-23T03:26:39.493Z,128.05
2018-11-23T03:29:08.037Z,146.53
2018-11-23T03:31:36.623Z,131.63
2018-11-23T03:34:05.966Z,137.50
2018-11-23T03:36:34.566Z,125.92
2018-11-23T03:39:02.787Z,131.87
2018-11-23T03:41:31.109Z,133.50
2018-11-23T03:43:59.809Z,146.68
2018-11-23T03:46:29.285Z,144.68
2018-11-23T03:48:57.820Z,139.00
2018-11-23T03:51:26.451Z,126.02
2018-11-23T03:53:54.757Z,152.93
2018-11-23T03:56:22.988Z,135.90
2018-11-23T03:58:52.382Z,129.68
2018-11-23T04:01:20.643Z,134.97
2018-11-23T04:03:48.894Z,124.07
2018-11-23T04:06:18.046Z,133.37
2018-11-23T04:08:46.526Z,135.03
2018-11-23T04:11:14.809Z,145.80
2018-11-23T04:13:43.719Z,116.00
2018-11-23T04:16:12.859Z,138.88
2018-11-23T04:18:41.117Z,137.28
2018-11-23T04:21:09.356Z,128.30
2018-11-23T04:23:37.972Z,139.40
2018-11-23T04:26:06.229Z,133.10
2018-11-23T04:28:53.844Z,140.10
2018-11-23T04:31:22.605Z,133.67
2018-11-23T04:33:51.174Z,141.22
2018-11-23T04:36:20.283Z,150.68
2018-11-23T04:38:48.889Z,146.02
2018-11-23T04:41:17.458Z,152.50
2018-11-23T04:43:46.210Z,141.40
2018-11-23T04:46:14.847Z,138.07
2018-11-23T04:48:43.380Z,128.93
2018-11-23T04:51:11.975Z,137.60
2018-11-23T04:53:40.602Z,142.60
2018-11-23T04:56:09.572Z,143.02
2018-11-23T04:58:38.363Z,139.55
2018-11-23T05:01:06.638Z,136.47
2018-11-23T05:03:35.174Z,155.72
2018-11-23T05:06:03.428Z,136.20
2018-11-23T05:08:32.350Z,126.12
2018-11-23T05:11:00.936Z,134.45
2018-11-23T05:13:29.878Z,140.95
2018-11-23T05:15:58.371Z,123.22
2018-11-23T05:18:27.025Z,148.22
2018-11-23T05:20:55.615Z,131.32
2018-11-23T05:23:24.534Z,136.82
2018-11-23T05:25:52.745Z,143.65
2018-11-23T05:28:21.578Z,148.87
2018-11-23T05:30:50.097Z,135.12
2018-11-23T05:33:18.869Z,154.57
2018-11-23T05:35:47.093Z,136.25
2018-11-23T05:38:15.601Z,135.28
2018-11-23T05:40:45.109Z,136.60
2018-11-23T05:43:13.309Z,139.25
2018-11-23T05:45:42.373Z,158.35
2018-11-23T05:48:10.892Z,137.72
2018-11-23T05:50:39.763Z,120.85
2018-11-23T05:53:08.404Z,139.20
2018-11-23T05:55:37.625Z,131.32
2018-11-23T05:58:05.989Z,117.30
2018-11-23T06:00:34.621Z,121.80
2018-11-23T06:03:03.509Z,123.35
2018-11-23T06:05:31.709Z,131.97
2018-11-23T06:08:00.279Z,137.07
2018-11-23T06:10:28.528Z,141.30
2018-11-23T06:12:57.418Z,125.72
2018-11-23T06:15:25.930Z,125.65
2018-11-23T06:17:54.139Z,120.55
2018-11-23T06:20:23.727Z,125.07
2018-11-23T06:22:52.809Z,122.80
2018-11-23T06:26:00.234Z,128.23
2018-11-23T06:28:29.430Z,127.53
2018-11-23T06:30:57.919Z,117.95
2018-11-23T06:33:47.009Z,125.70
2018-11-23T06:36:15.391Z,135.90
2018-11-23T06:38:44.450Z,139.18
2018-11-23T06:41:12.897Z,130.32
2018-11-23T06:43:41.410Z,128.50
2018-11-23T06:46:10.813Z,136.15
2018-11-23T06:48:39.363Z,122.70
2018-11-23T06:51:07.882Z,123.53
2018-11-23T06:53:36.376Z,132.35
2018-11-23T06:56:05.072Z,116.33
2018-11-23T06:58:33.795Z,121.47
2018-11-23T07:01:02.015Z,114.20
2018-11-23T07:03:30.288Z,131.55
2018-11-23T07:05:59.297Z,132.78
2018-11-23T07:08:27.542Z,113.95
2018-11-23T07:10:59.290Z,118.05
2018-11-23T07:13:28.648Z,127.38
2018-11-23T07:15:57.379Z,138.03
2018-11-23T07:18:25.997Z,122.65
2018-11-23T07:20:54.589Z,118.08
2018-11-23T07:23:23.253Z,130.72
2018-11-23T07:25:51.467Z,139.95
2018-11-23T07:28:20.004Z,130.27
2018-11-23T07:30:48.930Z,120.65
2018-11-23T07:33:17.142Z,111.55
2018-11-23T07:35:45.664Z,137.70
2018-11-23T07:38:13.963Z,110.83
2018-11-23T07:41:21.461Z,126.18
2018-11-23T07:43:50.024Z,122.17
2018-11-23T07:46:18.300Z,123.22
2018-11-23T07:48:47.550Z,127.82
2018-11-23T07:51:16.077Z,116.20
2018-11-23T07:53:44.594Z,133.32
2018-11-23T07:56:13.518Z,104.60
2018-11-23T07:58:41.741Z,112.05
2018-11-23T08:01:09.988Z,113.68
2018-11-23T08:03:38.585Z,126.92
2018-11-23T08:06:06.816Z,108.65
2018-11-23T08:08:35.357Z,117.03
2018-11-23T08:11:07.089Z,120.60
2018-11-23T08:13:36.184Z,110.22
2018-11-23T08:16:04.417Z,109.40
2018-11-23T08:18:32.698Z,101.70
2018-11-23T08:21:01.991Z,111.65
2018-11-23T08:23:30.536Z,102.27
2018-11-23T08:25:59.077Z,121.45
2018-11-23T08:28:28.290Z,110.40
2018-11-23T08:30:56.830Z,114.30
2018-11-23T08:33:25.070Z,99.55
2018-11-23T08:35:53.573Z,110.55
2018-11-23T08:38:22.181Z,105.85
2018-11-23T08:40:50.440Z,99.40
2018-11-23T08:43:38.316Z,101.80
2018-11-23T08:46:06.567Z,106.27
2018-11-23T08:48:35.186Z,109.75
2018-11-23T08:51:04.077Z,97.75
2018-11-23T08:53:34.363Z,103.27
2018-11-23T08:56:03.255Z,99.65
2018-11-23T08:58:32.165Z,106.95
2018-11-23T09:01:00.472Z,100.97
2018-11-23T09:03:29.025Z,116.70
2018-11-23T09:05:57.907Z,104.23
2018-11-23T09:08:26.182Z,116.70
2018-11-23T09:10:54.793Z,99.90
2018-11-23T09:13:23.404Z,105.70
2018-11-23T09:15:51.949Z,100.45
2018-11-23T09:18:20.504Z,98.35
2018-11-23T09:20:49.065Z,106.83
2018-11-23T09:23:17.740Z,111.80
2018-11-23T09:25:46.686Z,95.83
2018-11-23T09:28:15.402Z,100.33
2018-11-23T09:30:43.649Z,121.57
2018-11-23T09:33:11.916Z,102.45
2018-11-23T09:35:40.223Z,109.90
2018-11-23T09:38:08.459Z,93.95
2018-11-23T09:40:37.136Z,113.57
2018-11-23T09:43:24.824Z,114.55
2018-11-23T09:45:54.034Z,100.72
2018-11-23T09:48:22.290Z,109.52
2018-11-23T09:50:50.499Z,108.57
2018-11-23T09:53:19.020Z,113.32
2018-11-23T09:55:47.987Z,106.03
2018-11-23T09:58:16.506Z,112.57
2018-11-23T10:00:44.732Z,105.70
2018-11-23T10:03:12.992Z,99.10
2018-11-23T10:05:41.190Z,113.20
2018-11-23T10:08:09.414Z,114.57
2018-11-23T10:10:37.631Z,115.62
2018-11-23T10:13:05.896Z,105.90
2018-11-23T10:15:34.437Z,103.38
2018-11-23T10:18:02.740Z,96.65
2018-11-23T10:20:32.138Z,112.40
2018-11-23T10:23:00.344Z,115.80
2018-11-23T10:25:30.279Z,108.47
2018-11-23T10:27:58.840Z,96.90
2018-11-23T10:30:28.397Z,101.78
2018-11-23T10:32:58.598Z,95.77
2018-11-23T10:35:27.165Z,99.07
2018-11-23T10:38:14.834Z,101.35
2018-11-23T10:40:43.955Z,90.92
2018-11-23T10:43:12.552Z,93.00
2018-11-23T10:45:40.767Z,89.97
2018-11-23T10:48:09.540Z,96.15
2018-11-23T10:50:39.387Z,89.13
2018-11-23T10:53:07.955Z,81.35
2018-11-23T10:55:37.348Z,83.50
2018-11-23T10:58:06.136Z,93.80
2018-11-23T11:00:53.494Z,82.80
2018-11-23T11:03:40.800Z,94.65
2018-11-23T11:06:28.420Z,88.60
2018-11-23T11:08:56.662Z,93.60
2018-11-23T11:11:24.906Z,88.45
2018-11-23T11:13:53.463Z,67.53
2018-11-23T11:16:21.912Z,84.22
2018-11-23T11:18:50.552Z,88.67
2018-11-23T11:21:38.444Z,73.90
2018-11-23T11:24:06.659Z,82.72
2018-11-23T11:26:34.883Z,72.22
2018-11-23T11:29:03.103Z,68.10
2018-11-23T11:31:31.352Z,73.60
2018-11-23T11:33:59.852Z,64.82
2018-11-23T11:36:28.115Z,66.22
2018-11-23T11:38:57.028Z,63.42
2018-11-23T11:41:25.938Z,72.53
2018-11-23T11:43:54.855Z,74.77
2018-11-23T11:46:24.649Z,65.37
2018-11-23T11:48:52.838Z,68.30
2018-11-23T11:51:21.092Z,72.05
2018-11-23T11:53:50.002Z,78.57
2018-11-23T11:56:18.980Z,63.35
2018-11-23T11:58:47.267Z,82.37
2018-11-23T12:01:16.176Z,73.97
2018-11-23T12:03:44.441Z,77.83
2018-11-23T12:06:13.514Z,74.90
2018-11-23T12:08:42.414Z,71.67
2018-11-23T12:11:11.025Z,82.83
2018-11-23T12:13:39.604Z,77.10
2018-11-23T12:16:08.130Z,83.45
2018-11-23T12:18:36.703Z,89.87
2018-11-23T12:21:05.039Z,80.30
2018-11-23T12:23:52.667Z,87.17
2018-11-23T12:26:21.647Z,84.00
2018-11-23T12:28:49.847Z,80.40
2018-11-23T12:31:18.083Z,75.03
2018-11-23T12:33:46.648Z,76.30
2018-11-23T12:36:15.138Z,77.03
2018-11-23T12:38:44.036Z,79.27
2018-11-23T12:41:12.729Z,82.97
2018-11-23T12:43:41.343Z,78.80
2018-11-23T12:46:28.954Z,78.73
2018-11-23T12:48:57.400Z,71.47
2018-11-23T12:51:25.951Z,73.47
2018-11-23T12:53:54.741Z,70.90
2018-11-23T12:56:23.310Z,70.87
2018-11-23T12:58:51.825Z,61.43
2018-11-23T13:01:20.077Z,77.40
2018-11-23T13:03:49.384Z,61.53
2018-11-23T13:06:17.701Z,77.97
2018-11-23T13:08:47.032Z,72.87
2018-11-23T13:11:15.529Z,64.43
2018-11-23T13:13:44.184Z,65.20
2018-11-23T13:16:12.397Z,67.13
2018-11-23T13:18:41.139Z,74.47
2018-11-23T13:21:10.048Z,69.17
2018-11-23T13:23:38.536Z,95.03
2018-11-23T13:26:06.818Z,88.83
2018-11-23T13:28:35.030Z,78.40
2018-11-23T13:31:03.283Z,80.60
2018-11-23T13:33:32.235Z,73.90
2018-11-23T13:36:19.884Z,71.33
2018-11-23T13:38:48.746Z,81.27
2018-11-23T13:41:16.967Z,79.50
2018-11-23T13:43:45.542Z,85.53
2018-11-23T13:46:14.492Z,75.27
2018-11-23T13:48:42.726Z,71.57
2018-11-23T13:51:11.049Z,64.03
2018-11-23T13:53:39.579Z,78.80
2018-11-23T13:56:08.487Z,64.63
2018-11-23T13:58:37.145Z,61.10
2018-11-23T14:01:05.532Z,63.67
2018-11-23T14:03:34.657Z,47.93
2018-11-23T14:06:02.944Z,35.90
2018-11-23T14:08:31.249Z,32.27
2018-11-23T14:10:59.780Z,42.23
2018-11-23T14:13:28.417Z,39.40
2018-11-23T14:16:16.395Z,39.47
2018-11-23T14:18:45.422Z,39.70
2018-11-23T14:21:13.703Z,37.00
2018-11-23T14:23:42.284Z,41.43
2018-11-23T14:26:11.171Z,37.53
2018-11-23T14:28:59.102Z,33.60
2018-11-23T14:31:27.688Z,28.27
2018-11-23T14:34:15.325Z,26.60
2018-11-23T14:36:43.685Z,32.57
2018-11-23T14:39:13.104Z,27.13
2018-11-23T14:41:40.880Z,36.57
2018-11-23T14:44:09.079Z,30.20
2018-11-23T14:46:38.050Z,29.60
2018-11-23T14:49:06.752Z,32.87
2018-11-23T14:51:36.234Z,35.67
2018-11-23T14:54:04.456Z,39.07
2018-11-23T14:56:32.704Z,33.23
2018-11-23T14:59:00.949Z,35.93
2018-11-23T15:01:29.640Z,36.23
2018-11-23T15:03:58.533Z,38.80
2018-11-23T15:06:26.851Z,33.50
2018-11-23T15:08:55.920Z,46.10
2018-11-23T15:11:24.155Z,42.43
2018-11-23T15:13:52.432Z,39.90
2018-11-23T15:16:20.748Z,34.67
2018-11-23T15:18:49.828Z,36.40
2018-11-23T15:21:18.079Z,47.97
2018-11-23T15:23:46.641Z,39.80
2018-11-23T15:26:14.864Z,50.25
2018-11-23T15:28:43.131Z,39.83
2018-11-23T15:31:11.793Z,43.48
2018-11-23T15:33:40.382Z,38.58
2018-11-23T15:36:08.928Z,38.63
2018-11-23T15:38:37.483Z,33.30
2018-11-23T15:41:06.405Z,35.03
2018-11-23T15:43:54.341Z,37.07
2018-11-23T15:46:22.575Z,35.70
2018-11-23T15:48:51.199Z,32.77
2018-11-23T15:51:19.479Z,37.90
2018-11-23T15:53:48.040Z,33.67
2018-11-23T15:56:35.969Z,37.40
2018-11-23T15:59:04.265Z,36.77
2018-11-23T16:01:33.134Z,37.10
2018-11-23T16:04:01.368Z,42.43
2018-11-23T16:06:30.069Z,42.65
2018-11-23T16:08:58.653Z,35.07
2018-11-23T16:11:28.211Z,32.93
2018-11-23T16:13:56.536Z,34.67
2018-11-23T16:16:25.149Z,33.50
2018-11-23T16:18:54.082Z,33.80
2018-11-23T16:21:22.728Z,34.95
2018-11-23T16:23:51.003Z,32.30
2018-11-23T16:26:19.821Z,28.98
2018-11-23T16:28:48.074Z,33.08
2018-11-23T16:31:16.676Z,34.40
2018-11-23T16:33:44.928Z,31.62
2018-11-23T16:36:13.588Z,33.15
2018-11-23T16:38:41.949Z,35.73
2018-11-23T16:41:10.569Z,34.73
2018-11-23T16:43:39.165Z,35.60
2018-11-23T16:46:07.800Z,29.82
2018-11-23T16:48:36.371Z,30.45
2018-11-23T16:51:04.842Z,33.85
2018-11-23T16:53:33.762Z,31.52
2018-11-23T16:56:02.035Z,36.38
2018-11-23T16:58:31.518Z,30.97
2018-11-23T17:01:00.485Z,33.28
2018-11-23T17:03:28.738Z,28.92
2018-11-23T17:06:11.006Z,40.12
2018-11-23T17:08:39.840Z,30.17
2018-11-23T17:11:07.471Z,30.92
2018-11-23T17:13:36.125Z,30.60
2018-11-23T17:16:04.338Z,33.55
2018-11-23T17:18:32.598Z,32.95
2018-11-23T17:21:01.222Z,36.77
2018-11-23T17:23:29.727Z,31.05
2018-11-23T17:25:58.260Z,28.80
2018-11-23T17:28:26.763Z,30.88
2018-11-23T17:30:55.214Z,31.60
2018-11-23T17:33:23.813Z,29.15
2018-11-23T17:35:52.771Z,27.67
2018-11-23T17:38:21.021Z,33.25
2018-11-23T17:40:49.245Z,32.65
2018-11-23T17:43:18.475Z,36.63
2018-11-23T17:45:46.760Z,34.30
2018-11-23T17:48:15.311Z,34.78
2018-11-23T17:50:43.518Z,34.03
2018-11-23T17:53:12.011Z,39.83
2018-11-23T17:55:40.896Z,30.12
2018-11-23T17:58:09.111Z,31.95
2018-11-23T18:00:39.481Z,32.67
2018-11-23T18:03:07.066Z,31.97
2018-11-23T18:05:35.720Z,32.85
2018-11-23T18:08:04.640Z,37.40
2018-11-23T18:10:33.909Z,36.53
2018-11-23T18:13:02.481Z,38.13
2018-11-23T18:15:32.323Z,35.52
2018-11-23T18:18:01.710Z,39.55
2018-11-23T18:20:30.944Z,37.50
2018-11-23T18:23:18.603Z,39.20
2018-11-23T18:26:06.245Z,41.28
2018-11-23T18:28:34.518Z,43.90
2018-11-23T18:31:22.148Z,37.98
2018-11-23T18:33:50.637Z,38.42
2018-11-23T18:36:18.833Z,50.55
2018-11-23T18:38:48.152Z,44.93
2018-11-23T18:41:16.895Z,43.73
2018-11-23T18:43:45.526Z,46.40
2018-11-23T18:46:14.029Z,45.48
2018-11-23T18:49:01.712Z,52.48
2018-11-23T18:51:30.353Z,45.75
2018-11-23T18:53:58.877Z,52.70
2018-11-23T19:00:02.411Z,49.18
2018-11-23T19:02:30.649Z,56.02
2018-11-23T19:04:59.788Z,50.70
2018-11-23T19:07:29.145Z,56.85
2018-11-23T19:09:57.669Z,58.63
2018-11-23T19:12:25.912Z,62.35
2018-11-23T19:14:54.152Z,55.95
2018-11-23T19:17:22.395Z,55.70
2018-11-23T19:19:50.604Z,61.70
2018-11-23T19:22:19.272Z,61.68
2018-11-23T19:24:47.555Z,62.60
2018-11-23T19:27:16.078Z,69.03
2018-11-23T19:29:44.597Z,66.25
2018-11-23T19:32:13.109Z,55.73
2018-11-23T19:34:41.645Z,69.00
2018-11-23T19:37:09.882Z,64.97
2018-11-23T19:39:38.743Z,72.20
2018-11-23T19:42:06.985Z,60.35
2018-11-23T19:44:35.208Z,62.90
2018-11-23T19:47:03.667Z,68.90
2018-11-23T19:49:32.956Z,82.30
2018-11-23T19:52:01.616Z,79.85
2018-11-23T19:54:29.842Z,69.20
2018-11-23T19:56:58.386Z,66.97
2018-11-23T19:59:26.903Z,70.00
2018-11-23T20:01:55.405Z,75.72
2018-11-23T20:04:23.960Z,72.58
2018-11-23T20:06:52.978Z,71.02
2018-11-23T20:09:21.540Z,68.50
2018-11-23T20:11:49.770Z,74.20
2018-11-23T20:14:17.988Z,76.00
2018-11-23T20:16:46.559Z,85.05
2018-11-23T20:19:14.804Z,72.65
2018-11-23T20:21:43.650Z,69.87
2018-11-23T20:24:12.145Z,77.45
2018-11-23T20:26:41.120Z,68.87
2018-11-23T20:29:09.770Z,71.80
2018-11-23T20:31:38.300Z,73.55
2018-11-23T20:34:09.626Z,60.48
2018-11-23T20:36:37.816Z,67.82
2018-11-23T20:39:08.905Z,66.22
2018-11-23T20:41:37.918Z,66.28
2018-11-23T20:44:06.654Z,63.00
2018-11-23T20:46:35.780Z,64.55
2018-11-23T20:49:04.361Z,67.72
2018-11-23T20:51:32.909Z,63.68
2018-11-23T20:54:01.492Z,63.95
2018-11-23T20:56:30.125Z,60.58
2018-11-23T20:58:58.745Z,63.20
2018-11-23T21:01:27.277Z,66.40
2018-11-23T21:03:56.208Z,71.30
2018-11-23T21:06:24.743Z,75.28
2018-11-23T21:08:53.560Z,75.45
2018-11-23T21:11:21.796Z,73.78
2018-11-23T21:13:50.042Z,68.72
2018-11-23T21:16:18.925Z,69.15
2018-11-23T21:18:47.136Z,64.25
2018-11-23T21:21:15.487Z,69.85
2018-11-23T21:23:43.965Z,68.37
2018-11-23T21:26:12.174Z,62.85
2018-11-23T21:28:41.624Z,74.12
2018-11-23T21:31:10.229Z,69.20
2018-11-23T21:33:39.117Z,89.70
2018-11-23T21:36:07.396Z,59.25
2018-11-23T21:38:35.632Z,70.03
2018-11-23T21:41:04.146Z,68.20
2018-11-23T21:43:32.398Z,77.90
2018-11-23T21:46:01.010Z,64.12
2018-11-23T21:48:29.509Z,67.37
2018-11-23T21:50:58.113Z,64.32
2018-11-23T21:53:27.063Z,70.00
2018-11-23T21:55:55.822Z,62.33
2018-11-23T21:58:24.369Z,61.45
2018-11-23T22:00:53.181Z,57.58
2018-11-23T22:03:21.641Z,76.05
2018-11-23T22:05:50.252Z,60.80
2018-11-23T22:08:19.145Z,65.25
2018-11-23T22:10:47.385Z,64.55
2018-11-23T22:13:15.672Z,66.57
2018-11-23T22:15:44.220Z,63.98
2018-11-23T22:18:12.917Z,61.13
2018-11-23T22:20:41.785Z,66.53
2018-11-23T22:23:10.342Z,62.78
2018-11-23T22:25:39.665Z,71.70
2018-11-23T22:28:08.215Z,67.03
2018-11-23T22:30:36.746Z,69.47
2018-11-23T22:33:05.022Z,67.40
2018-11-23T22:35:34.142Z,67.35
2018-11-23T22:38:02.698Z,65.95
2018-11-23T22:40:31.586Z,63.85
2018-11-23T22:43:00.708Z,71.10
2018-11-23T22:45:29.269Z,64.32
2018-11-23T22:47:58.124Z,61.85
2018-11-23T22:50:26.659Z,68.35
2018-11-23T22:52:54.859Z,64.07
2018-11-23T22:55:24.338Z,65.47
2018-11-23T22:57:53.001Z,71.72
2018-11-23T23:00:59.941Z,63.05
2018-11-23T23:03:28.536Z,71.57
2018-11-23T23:05:58.579Z,68.22
2018-11-23T23:08:27.061Z,68.55
2018-11-23T23:10:55.289Z,65.80
2018-11-23T23:13:23.816Z,64.70
2018-11-23T23:15:52.028Z,64.65
2018-11-23T23:18:20.259Z,61.85
2018-11-23T23:20:49.699Z,63.98
2018-11-23T23:23:18.329Z,63.40
2018-11-23T23:25:47.002Z,55.88
2018-11-23T23:28:15.541Z,59.73
2018-11-23T23:30:44.042Z,71.28
2018-11-23T23:33:12.305Z,58.20
2018-11-23T23:35:40.570Z,57.03
2018-11-23T23:38:09.541Z,58.83
2018-11-23T23:40:38.554Z,57.83
2018-11-23T23:43:06.759Z,56.40
2018-11-23T23:45:36.401Z,67.82
2018-11-23T23:48:04.662Z,69.80
2018-11-23T23:50:52.277Z,61.35
2018-11-23T23:53:20.515Z,66.77
2018-11-23T23:55:55.592Z,59.27
2018-11-23T23:58:24.216Z,61.08
